Pagina principale
METAR-TAF:

METAR-TAF

Aeroporti :

Monte Malanotte

Prato Nevoso, Italia

latitudine: 44-15N, longitudine: 007-48E, altezza: 1741 m

Osservazione

Il bollettino è stato emesso 54 minuti fa, alle 17:55 UTC
Vento 6 kt da ovest/sud-ovest
Temperature 1°C
Umidità 86%
Pressione 1013 hPa
Visibilità: 7000 m
Nuvoloso ad un'altezza di 1200 ft

METAR: LIMY 191755Z 25006KT 7000 BKN012 01/M01 Q1013 RMK OVC SCT056 VAL FOSCHIA VIS MIN 7000

Ora: 19:49 (18:49 UTC)


TAF: mancante

Osservazioni e previsioni meteorologiche di più di 4000 aeroporti (messaggi METAR e TAF).

Le stazioni disponibili sono rappresentate dai dischi gialli e rossi sulla carta.

Puntare il mouse per vedere il nome della stazione.

Clicca sopra per visualizzare le osservazioni e previsioni meteorologiche.

Per cambiare la mappa : fare clic sui pulsanti verdi con una croce nera per ingrandire, il pulsante verde con un trattino per diminuire, o sulla freccia verde per le mappe adiacenti.


METAR-TAF: